createdAt,value
2023-01-02T00:00:13.351Z,56.4
2023-01-02T00:01:23.000Z,56.4
2023-01-02T00:02:33.000Z,56.4
2023-01-02T00:03:43.000Z,56.4
2023-01-02T00:04:53.000Z,56.4
2023-01-02T00:06:03.000Z,56.4
2023-01-02T00:07:14.000Z,56.4
2023-01-02T00:08:24.169Z,56.4
2023-01-02T00:09:34.000Z,56.4
2023-01-02T00:10:43.412Z,56.4
2023-01-02T00:11:53.527Z,56.4
2023-01-02T00:13:03.000Z,56.4
2023-01-02T00:14:13.000Z,56.4
2023-01-02T00:15:23.000Z,56.5
2023-01-02T00:16:33.000Z,56.4
2023-01-02T00:17:44.000Z,56.5
2023-01-02T00:18:54.000Z,56.4
2023-01-02T00:20:04.000Z,56.5
2023-01-02T00:21:13.000Z,56.4
2023-01-02T00:22:23.602Z,56.4
2023-01-02T00:23:32.000Z,56.5
2023-01-02T00:24:41.876Z,56.5
2023-01-02T00:25:51.000Z,56.5
2023-01-02T00:27:01.133Z,56.4
2023-01-02T00:28:11.000Z,56.5
2023-01-02T00:29:21.358Z,56.4
2023-01-02T00:30:31.000Z,56.5
2023-01-02T00:32:51.000Z,56.5
2023-01-02T00:34:01.826Z,56.5
2023-01-02T00:35:11.000Z,56.5
2023-01-02T00:36:22.064Z,56.5
2023-01-02T00:37:32.000Z,56.5
2023-01-02T00:38:42.289Z,56.5
2023-01-02T00:39:52.000Z,56.5
2023-01-02T00:41:01.000Z,56.5
2023-01-02T00:42:11.000Z,56.5
2023-01-02T00:43:21.000Z,56.5
2023-01-02T00:44:31.000Z,56.5
2023-01-02T00:45:42.000Z,56.5
2023-01-02T00:46:52.132Z,56.5
2023-01-02T00:48:02.000Z,56.5
2023-01-02T00:49:12.000Z,56.6
2023-01-02T00:51:31.619Z,56.5
2023-01-02T00:52:40.777Z,56.6
2023-01-02T00:53:49.000Z,56.6
2023-01-02T00:55:00.016Z,56.6
2023-01-02T00:56:10.000Z,56.6
2023-01-02T00:57:19.275Z,56.6
2023-01-02T00:58:28.408Z,56.6
2023-01-02T00:59:38.523Z,56.6
2023-01-02T01:00:48.639Z,56.6
2023-01-02T01:01:58.764Z,56.6
2023-01-02T01:03:08.000Z,56.6
2023-01-02T01:04:19.003Z,56.6
2023-01-02T01:05:29.000Z,56.6
2023-01-02T01:06:39.000Z,56.6
2023-01-02T01:07:49.000Z,56.6
2023-01-02T01:08:59.000Z,56.6
2023-01-02T01:10:09.573Z,56.6
2023-01-02T01:11:19.700Z,56.6
2023-01-02T01:12:29.000Z,56.6
2023-01-02T01:13:38.951Z,56.6
2023-01-02T01:14:49.061Z,56.6
2023-01-02T01:15:59.000Z,56.6
2023-01-02T01:17:09.000Z,56.6
2023-01-02T01:18:19.000Z,56.6
2023-01-02T01:19:29.535Z,56.6
2023-01-02T01:20:39.000Z,56.6
2023-01-02T01:21:48.000Z,56.6
2023-01-02T01:22:57.931Z,56.6
2023-01-02T01:24:07.000Z,56.6
2023-01-02T01:25:16.199Z,56.7
2023-01-02T01:26:26.000Z,56.6
2023-01-02T01:27:36.442Z,56.6
2023-01-02T01:28:45.000Z,56.6
2023-01-02T01:29:55.000Z,56.6
2023-01-02T01:31:05.804Z,56.6
2023-01-02T01:32:15.000Z,56.6
2023-01-02T01:33:26.032Z,56.6
2023-01-02T01:34:36.000Z,56.6
2023-01-02T01:35:46.000Z,56.6
2023-01-02T01:36:56.387Z,56.6
2023-01-02T01:38:06.000Z,56.6
2023-01-02T01:39:16.000Z,56.7
2023-01-02T01:40:26.000Z,56.7
2023-01-02T01:41:36.852Z,56.7
2023-01-02T01:42:46.000Z,56.7
2023-01-02T01:43:56.099Z,56.7
2023-01-02T01:45:06.218Z,56.7
2023-01-02T01:46:16.000Z,56.8
2023-01-02T01:47:26.463Z,56.8
2023-01-02T01:49:45.000Z,56.8
2023-01-02T01:50:54.864Z,56.8
2023-01-02T01:52:04.001Z,56.8
2023-01-02T01:53:14.000Z,56.8
2023-01-02T01:54:24.224Z,56.8
2023-01-02T01:55:34.344Z,56.8
2023-01-02T01:56:43.493Z,56.8
2023-01-02T01:57:52.627Z,56.7
2023-01-02T01:59:02.000Z,56.7
2023-01-02T02:00:12.849Z,56.8
2023-01-02T02:01:22.968Z,56.7
2023-01-02T02:02:33.000Z,56.7
2023-01-02T02:03:43.000Z,56.7
2023-01-02T02:04:53.324Z,56.7
2023-01-02T02:06:03.000Z,56.7
2023-01-02T02:07:13.000Z,56.7
2023-01-02T02:08:23.672Z,56.7
2023-01-02T02:09:33.793Z,56.7
2023-01-02T02:10:43.902Z,56.7
2023-01-02T02:11:54.014Z,56.6
2023-01-02T02:13:03.160Z,56.6
2023-01-02T02:14:13.000Z,56.6
2023-01-02T02:16:33.500Z,56.6
2023-01-02T02:17:43.000Z,56.6
2023-01-02T02:18:53.000Z,56.6
2023-01-02T02:20:03.854Z,56.6
2023-01-02T02:21:13.975Z,56.5
2023-01-02T02:22:23.000Z,56.5
2023-01-02T02:23:32.000Z,56.5
2023-01-02T02:24:42.000Z,56.5
2023-01-02T02:25:51.000Z,56.5
2023-01-02T02:27:00.000Z,56.5
2023-01-02T02:28:10.763Z,56.5
2023-01-02T02:29:20.881Z,56.5
2023-01-02T02:30:30.000Z,56.4
2023-01-02T02:31:41.107Z,56.4
2023-01-02T02:32:51.000Z,56.4
2023-01-02T02:34:01.343Z,56.4
2023-01-02T02:35:11.000Z,56.4
2023-01-02T02:36:21.000Z,56.4
2023-01-02T02:37:31.000Z,56.4
2023-01-02T02:38:41.000Z,56.4
2023-01-02T02:39:51.000Z,56.4
2023-01-02T02:41:02.049Z,56.3
2023-01-02T02:42:11.168Z,56.3
2023-01-02T02:43:21.000Z,56.3
2023-01-02T02:44:31.403Z,56.3
2023-01-02T02:45:41.525Z,56.3
2023-01-02T02:46:51.648Z,56.3
2023-01-02T02:48:01.000Z,56.3
2023-01-02T02:49:11.873Z,56.3
2023-01-02T02:50:21.000Z,56.3
2023-01-02T02:51:32.115Z,56.3
2023-01-02T02:52:42.232Z,56.3
2023-01-02T02:53:52.000Z,56.1
2023-01-02T02:55:02.454Z,56.2
2023-01-02T02:56:12.000Z,56.1
2023-01-02T02:57:21.000Z,56.1
2023-01-02T02:58:31.818Z,56.1
2023-01-02T02:59:41.953Z,56.1
2023-01-02T03:00:52.000Z,56.1
2023-01-02T03:02:02.000Z,56.1
2023-01-02T03:03:12.289Z,56.1
2023-01-02T03:04:22.000Z,56.1
2023-01-02T03:05:32.000Z,56.1
2023-01-02T03:06:42.000Z,56
2023-01-02T03:07:52.000Z,56
2023-01-02T03:09:02.000Z,56
2023-01-02T03:10:12.000Z,56
2023-01-02T03:11:23.110Z,56
2023-01-02T03:12:32.000Z,56
2023-01-02T03:13:42.000Z,56
2023-01-02T03:14:52.000Z,56
2023-01-02T03:16:02.000Z,56
2023-01-02T03:17:12.702Z,56
2023-01-02T03:18:22.821Z,56
2023-01-02T03:19:32.000Z,56
2023-01-02T03:20:43.000Z,56
2023-01-02T03:21:53.167Z,55.9
2023-01-02T03:23:03.286Z,55.9
2023-01-02T03:24:13.406Z,55.9
2023-01-02T03:25:23.000Z,55.9
2023-01-02T03:26:33.000Z,55.9
2023-01-02T03:27:42.766Z,55.9
2023-01-02T03:28:52.000Z,55.9
2023-01-02T03:30:03.018Z,55.9
2023-01-02T03:31:13.120Z,55.9
2023-01-02T03:32:23.000Z,56
2023-01-02T03:33:33.000Z,55.9
2023-01-02T03:34:43.000Z,55.9
2023-01-02T03:37:03.000Z,55.9
2023-01-02T03:38:13.000Z,55.9
2023-01-02T03:39:23.943Z,55.9
2023-01-02T03:40:34.000Z,55.9
2023-01-02T03:41:44.000Z,55.9
2023-01-02T03:42:53.000Z,55.9
2023-01-02T03:44:03.000Z,55.9
2023-01-02T03:45:13.540Z,55.9
2023-01-02T03:46:23.658Z,55.9
2023-01-02T03:47:33.000Z,55.9
2023-01-02T03:48:43.000Z,55.9
2023-01-02T03:49:54.003Z,55.9
2023-01-02T03:51:04.125Z,55.9
2023-01-02T03:52:14.000Z,55.9
2023-01-02T03:53:24.000Z,55.9
2023-01-02T03:54:34.000Z,55.9
2023-01-02T03:55:44.000Z,56
2023-01-02T03:56:54.000Z,55.9
2023-01-02T03:58:03.000Z,56
2023-01-02T03:59:13.960Z,56
2023-01-02T04:00:24.000Z,56
2023-01-02T04:01:34.000Z,56
2023-01-02T04:02:44.307Z,55.9
2023-01-02T04:03:54.430Z,56
2023-01-02T04:05:04.000Z,56
2023-01-02T04:06:14.000Z,56
2023-01-02T04:07:24.000Z,56
2023-01-02T04:08:34.000Z,56
2023-01-02T04:09:45.000Z,56
2023-01-02T04:10:55.000Z,56
2023-01-02T04:12:04.000Z,56
2023-01-02T04:13:13.000Z,56
2023-01-02T04:14:23.516Z,56
2023-01-02T04:15:32.000Z,56
2023-01-02T04:16:41.788Z,56
2023-01-02T04:17:51.000Z,56.1
2023-01-02T04:19:02.000Z,56.1
2023-01-02T04:20:12.000Z,56.1
2023-01-02T04:21:22.000Z,56.1
2023-01-02T04:22:32.000Z,56.1
2023-01-02T04:23:42.000Z,56.1
2023-01-02T04:24:52.000Z,56.1
2023-01-02T04:26:02.733Z,56.1
2023-01-02T04:27:12.000Z,56.1
2023-01-02T04:28:22.959Z,56.1
2023-01-02T04:29:33.000Z,56.1
2023-01-02T04:30:43.000Z,56.1
2023-01-02T04:31:52.000Z,56.1
2023-01-02T04:33:02.438Z,56.1
2023-01-02T04:34:12.555Z,56
2023-01-02T04:35:22.000Z,56.1
2023-01-02T04:36:32.000Z,56
2023-01-02T04:37:42.904Z,56
2023-01-02T04:38:53.000Z,56
2023-01-02T04:40:02.167Z,56
2023-01-02T04:41:12.000Z,56.1
2023-01-02T04:42:21.000Z,56
2023-01-02T04:43:30.000Z,56
2023-01-02T04:44:40.000Z,56
2023-01-02T04:45:49.806Z,56
2023-01-02T04:46:59.000Z,56
2023-01-02T04:48:10.000Z,56
2023-01-02T04:49:20.172Z,56
2023-01-02T04:50:30.000Z,56
2023-01-02T04:51:40.000Z,56
2023-01-02T04:52:50.000Z,56
2023-01-02T04:54:00.000Z,56
2023-01-02T04:55:10.000Z,56
2023-01-02T04:56:20.000Z,56
2023-01-02T04:57:30.000Z,56
2023-01-02T04:58:41.000Z,56
2023-01-02T04:59:51.216Z,56
2023-01-02T05:01:00.340Z,56
2023-01-02T05:02:10.000Z,56
2023-01-02T05:03:20.000Z,55.9
2023-01-02T05:04:30.000Z,56
2023-01-02T05:05:40.809Z,56
2023-01-02T05:06:50.000Z,55.9
2023-01-02T05:08:00.068Z,55.9
2023-01-02T05:09:09.220Z,55.9
2023-01-02T05:10:19.000Z,55.9
2023-01-02T05:11:29.437Z,55.9
2023-01-02T05:12:39.557Z,55.9
2023-01-02T05:13:48.000Z,55.9
2023-01-02T05:14:57.827Z,55.9
2023-01-02T05:16:07.000Z,55.9
2023-01-02T05:17:18.000Z,55.9
2023-01-02T05:18:28.177Z,55.9
2023-01-02T05:19:38.297Z,55.9
2023-01-02T05:20:48.000Z,55.9
2023-01-02T05:21:58.000Z,55.9
2023-01-02T05:23:07.000Z,55.9
2023-01-02T05:24:17.000Z,55.9
2023-01-02T05:25:27.000Z,55.9
2023-01-02T05:26:38.034Z,55.9
2023-01-02T05:27:48.000Z,55.9
2023-01-02T05:28:58.000Z,55.9
2023-01-02T05:30:08.000Z,55.9
2023-01-02T05:31:18.493Z,55.9
2023-01-02T05:32:28.600Z,55.9
2023-01-02T05:33:38.000Z,55.9
2023-01-02T05:34:48.833Z,55.9
2023-01-02T05:35:58.952Z,55.9
2023-01-02T05:37:09.066Z,55.9
2023-01-02T05:38:18.000Z,55.9
2023-01-02T05:39:27.000Z,55.9
2023-01-02T05:40:37.000Z,55.9
2023-01-02T05:41:46.000Z,55.9
2023-01-02T05:42:56.000Z,55.9
2023-01-02T05:44:05.000Z,55.9
2023-01-02T05:45:15.984Z,55.8
2023-01-02T05:46:26.100Z,55.9
2023-01-02T05:47:36.000Z,55.9
2023-01-02T05:48:46.000Z,55.9
2023-01-02T05:49:56.436Z,55.9
2023-01-02T05:51:06.552Z,55.9
2023-01-02T05:52:16.673Z,55.9
2023-01-02T05:53:26.000Z,55.9
2023-01-02T05:54:36.000Z,55.8
2023-01-02T05:55:47.000Z,55.8
2023-01-02T05:56:57.000Z,55.9
2023-01-02T05:58:07.000Z,55.8
2023-01-02T05:59:16.386Z,55.8
2023-01-02T06:00:26.512Z,55.7
2023-01-02T06:01:36.629Z,56.2
2023-01-02T06:02:46.735Z,56.1
2023-01-02T06:03:56.000Z,56.1
2023-01-02T06:05:06.984Z,56.1
2023-01-02T06:06:16.122Z,56.4
2023-01-02T06:07:25.250Z,56.5
2023-01-02T06:08:35.000Z,56.6
2023-01-02T06:09:45.000Z,56.9
2023-01-02T06:10:55.600Z,57
2023-01-02T06:12:04.000Z,57
2023-01-02T06:13:13.000Z,57.3
2023-01-02T06:14:23.991Z,57.4
2023-01-02T06:15:34.000Z,57.5
2023-01-02T06:16:44.000Z,57.6
2023-01-02T06:17:54.336Z,57.7
2023-01-02T06:19:04.000Z,57.8
2023-01-02T06:20:14.571Z,58
2023-01-02T06:21:24.000Z,58.1
2023-01-02T06:22:34.805Z,58.1
2023-01-02T06:23:44.921Z,58.2
2023-01-02T06:24:55.000Z,58.3
2023-01-02T06:26:05.000Z,58.3
2023-01-02T06:27:15.275Z,58.4
2023-01-02T06:28:24.409Z,58.5
2023-01-02T06:29:34.524Z,58.6
2023-01-02T06:30:44.000Z,58.6
2023-01-02T06:31:54.764Z,58.7
2023-01-02T06:33:04.877Z,58.7
2023-01-02T06:34:14.990Z,58.7
2023-01-02T06:35:25.113Z,58.8
2023-01-02T06:36:35.000Z,58.9
2023-01-02T06:37:45.336Z,58.9
2023-01-02T06:38:55.455Z,58.9
2023-01-02T06:40:05.000Z,58.9
2023-01-02T06:41:15.698Z,59
2023-01-02T06:42:25.000Z,58.9
2023-01-02T06:43:34.000Z,58.9
2023-01-02T06:44:45.000Z,59.1
2023-01-02T06:45:55.169Z,59
2023-01-02T06:47:05.292Z,59
2023-01-02T06:48:15.000Z,59
2023-01-02T06:49:25.000Z,59
2023-01-02T06:50:35.000Z,59.1
2023-01-02T06:51:44.000Z,59.1
2023-01-02T06:52:53.000Z,59.1
2023-01-02T06:54:03.054Z,59.1
2023-01-02T06:55:12.000Z,59.1
2023-01-02T06:56:22.000Z,59
2023-01-02T06:57:32.000Z,59.1
2023-01-02T06:58:42.000Z,59.3
2023-01-02T06:59:52.660Z,59.1
2023-01-02T07:01:02.771Z,59.3
2023-01-02T07:02:12.887Z,59.3
2023-01-02T07:03:23.005Z,59.3
2023-01-02T07:04:33.000Z,59.3
2023-01-02T07:05:43.238Z,59.3
2023-01-02T07:06:53.371Z,59.3
2023-01-02T07:08:03.000Z,59.3
2023-01-02T07:09:13.588Z,59.3
2023-01-02T07:10:22.000Z,59.3
2023-01-02T07:11:32.000Z,59.4
2023-01-02T07:12:42.000Z,59.3
2023-01-02T07:13:53.000Z,59.3
2023-01-02T07:15:03.000Z,59.3
2023-01-02T07:16:13.306Z,59.4
2023-01-02T07:17:23.000Z,59.4
2023-01-02T07:18:33.000Z,59.3
2023-01-02T07:19:43.000Z,59.3
2023-01-02T07:20:53.784Z,59.3
2023-01-02T07:22:03.000Z,59.4
2023-01-02T07:23:14.000Z,59.3
2023-01-02T07:24:24.126Z,59.3
2023-01-02T07:25:33.264Z,59.4
2023-01-02T07:26:43.000Z,59.4
2023-01-02T07:27:53.000Z,59.4
2023-01-02T07:29:03.000Z,59.4
2023-01-02T07:30:13.723Z,59.4
2023-01-02T07:31:23.000Z,59.4
2023-01-02T07:32:33.000Z,59.3
2023-01-02T07:33:44.000Z,59.4
2023-01-02T07:34:54.192Z,59.3
2023-01-02T07:36:04.000Z,59.3
2023-01-02T07:37:14.427Z,59.3
2023-01-02T07:38:24.000Z,59.4
2023-01-02T07:39:34.000Z,59.4
2023-01-02T07:40:43.791Z,59.4
2023-01-02T07:41:53.000Z,59.4
2023-01-02T07:43:04.025Z,59.4
2023-01-02T07:44:14.000Z,59.4
2023-01-02T07:45:24.000Z,59.4
2023-01-02T07:46:34.000Z,59.4
2023-01-02T07:47:44.000Z,59.4
2023-01-02T07:48:54.000Z,59.4
2023-01-02T07:50:04.728Z,59.4
2023-01-02T07:51:14.000Z,59.5
2023-01-02T07:52:24.000Z,59.5
2023-01-02T07:53:35.076Z,59.5
2023-01-02T07:54:45.000Z,59.5
2023-01-02T07:55:55.000Z,59.5
2023-01-02T07:57:04.443Z,59.5
2023-01-02T07:58:14.000Z,59.5
2023-01-02T07:59:24.000Z,59.5
2023-01-02T08:00:34.000Z,59.6
2023-01-02T08:01:44.000Z,59.5
2023-01-02T08:02:55.031Z,59.6
2023-01-02T08:04:05.000Z,59.6
2023-01-02T08:05:15.000Z,59.5
2023-01-02T08:06:25.000Z,59.6
2023-01-02T08:07:35.499Z,59.6
2023-01-02T08:08:45.000Z,59.6
2023-01-02T08:09:55.000Z,59.6
2023-01-02T08:11:05.000Z,59.6
2023-01-02T08:12:14.000Z,59.6
2023-01-02T08:13:25.000Z,59.6
2023-01-02T08:14:35.000Z,59.5
2023-01-02T08:15:45.000Z,59.4
2023-01-02T08:16:55.000Z,59.3
2023-01-02T08:18:05.000Z,59.2
2023-01-02T08:19:15.000Z,59.1
2023-01-02T08:20:25.000Z,59
2023-01-02T08:21:35.000Z,58.9
2023-01-02T08:22:46.000Z,58.9
2023-01-02T08:23:56.154Z,58.7
2023-01-02T08:25:06.000Z,58.7
2023-01-02T08:26:16.000Z,58.6
2023-01-02T08:27:25.000Z,58.5
2023-01-02T08:28:35.000Z,58.4
2023-01-02T08:29:44.000Z,58.3
2023-01-02T08:30:53.000Z,58.3
2023-01-02T08:32:03.000Z,58.2
2023-01-02T08:33:13.000Z,58.1
2023-01-02T08:34:23.000Z,58
2023-01-02T08:35:33.402Z,58
2023-01-02T08:36:43.000Z,57.9
2023-01-02T08:37:53.000Z,57.9
2023-01-02T08:39:03.755Z,57.8
2023-01-02T08:40:13.000Z,57.8
2023-01-02T08:41:23.000Z,57.7
2023-01-02T08:42:34.000Z,57.6
2023-01-02T08:43:44.220Z,57.6
2023-01-02T08:44:54.000Z,57.5
2023-01-02T08:46:04.000Z,57.4
2023-01-02T08:47:13.584Z,57.4
2023-01-02T08:48:23.000Z,57.3
2023-01-02T08:49:33.000Z,57.3
2023-01-02T08:50:43.000Z,57.3
2023-01-02T08:51:54.058Z,57.2
2023-01-02T08:53:04.000Z,57.1
2023-01-02T08:54:14.287Z,57.1
2023-01-02T08:55:23.000Z,57
2023-01-02T08:56:32.564Z,57
2023-01-02T08:57:41.000Z,56.9
2023-01-02T08:58:50.841Z,56.9
2023-01-02T09:00:00.960Z,56.9
2023-01-02T09:01:11.000Z,56.8
2023-01-02T09:02:21.000Z,56.8
2023-01-02T09:03:31.000Z,56.7
2023-01-02T09:04:41.000Z,56.7
2023-01-02T09:05:51.000Z,56.6
2023-01-02T09:07:01.000Z,56.6
2023-01-02T09:08:11.777Z,56.6
2023-01-02T09:09:21.000Z,56.5
2023-01-02T09:10:32.000Z,56.5
2023-01-02T09:11:42.000Z,56.5
2023-01-02T09:12:52.000Z,56.5
2023-01-02T09:14:01.000Z,56.4
2023-01-02T09:15:11.000Z,56.4
2023-01-02T09:16:21.000Z,56.4
2023-01-02T09:17:30.752Z,56.3
2023-01-02T09:18:40.872Z,56.3
2023-01-02T09:19:50.000Z,56.3
2023-01-02T09:21:01.000Z,56.3
2023-01-02T09:22:10.000Z,56.2
2023-01-02T09:23:19.000Z,56.2
2023-01-02T09:24:29.000Z,56.2
2023-01-02T09:25:39.617Z,56.1
2023-01-02T09:26:48.000Z,56.1
2023-01-02T09:27:57.000Z,56.1
2023-01-02T09:29:08.000Z,56
2023-01-02T09:30:18.000Z,56
2023-01-02T09:31:28.242Z,56
2023-01-02T09:32:38.000Z,55.9
2023-01-02T09:33:48.477Z,55.9
2023-01-02T09:34:58.000Z,55.9
2023-01-02T09:36:08.000Z,55.8
2023-01-02T09:37:18.000Z,55.8
2023-01-02T09:38:28.000Z,55.8
2023-01-02T09:39:39.062Z,55.7
2023-01-02T09:40:49.000Z,55.7
2023-01-02T09:41:59.000Z,55.7
2023-01-02T09:43:08.000Z,55.7
2023-01-02T09:44:18.000Z,55.7
2023-01-02T09:45:28.000Z,55.6
2023-01-02T09:46:38.000Z,55.6
2023-01-02T09:47:48.000Z,55.5
2023-01-02T09:48:59.000Z,55.4
2023-01-02T09:50:09.000Z,55.3
2023-01-02T09:51:19.000Z,55.3
2023-01-02T09:52:29.000Z,55.3
2023-01-02T09:53:39.000Z,55.2
2023-01-02T09:54:49.000Z,55.2
2023-01-02T09:55:59.000Z,55.2
2023-01-02T09:57:09.000Z,55.1
2023-01-02T09:58:18.000Z,55.1
2023-01-02T09:59:29.094Z,55
2023-01-02T10:00:38.000Z,55
2023-01-02T10:01:47.000Z,55
2023-01-02T10:02:57.000Z,55
2023-01-02T10:04:07.601Z,54.9
2023-01-02T10:05:16.000Z,54.9
2023-01-02T10:06:25.000Z,54.8
2023-01-02T10:07:36.000Z,54.8
2023-01-02T10:08:46.000Z,54.8
2023-01-02T10:09:56.000Z,54.8
2023-01-02T10:11:06.000Z,54.8
2023-01-02T10:12:16.470Z,54.7
2023-01-02T10:13:26.000Z,54.7
2023-01-02T10:14:36.000Z,54.7
2023-01-02T10:15:46.000Z,54.7
2023-01-02T10:16:56.000Z,54.7
2023-01-02T10:18:07.000Z,54.6
2023-01-02T10:19:17.000Z,54.6
2023-01-02T10:20:27.000Z,54.5
2023-01-02T10:21:36.000Z,54.6
2023-01-02T10:22:46.000Z,54.5
2023-01-02T10:23:56.000Z,54.5
2023-01-02T10:25:06.000Z,54.5
2023-01-02T10:26:16.906Z,54.4
2023-01-02T10:27:27.000Z,54.4
2023-01-02T10:28:37.123Z,54.4
2023-01-02T10:29:47.000Z,54.4
2023-01-02T10:30:57.000Z,54.3
2023-01-02T10:32:07.484Z,54.3
2023-01-02T10:33:17.595Z,54.3
2023-01-02T10:34:27.000Z,54.2
2023-01-02T10:35:37.000Z,54.2
2023-01-02T10:36:46.000Z,54.2
2023-01-02T10:37:57.000Z,54.2
2023-01-02T10:39:07.204Z,54.2
2023-01-02T10:40:17.000Z,54.1
2023-01-02T10:41:27.000Z,54.1
2023-01-02T10:42:37.559Z,54.1
2023-01-02T10:43:47.000Z,54.1
2023-01-02T10:44:57.000Z,54
2023-01-02T10:46:07.904Z,54
2023-01-02T10:47:18.000Z,54
2023-01-02T10:48:28.000Z,54
2023-01-02T10:49:38.000Z,54
2023-01-02T10:50:48.000Z,53.9
2023-01-02T10:51:57.000Z,53.9
2023-01-02T10:53:07.000Z,53.9
2023-01-02T10:54:17.756Z,53.8
2023-01-02T10:55:27.000Z,53.8
2023-01-02T10:56:37.982Z,53.7
2023-01-02T10:57:48.000Z,53.7
2023-01-02T10:58:58.000Z,53.7
2023-01-02T11:00:08.000Z,53.6
2023-01-02T11:01:18.000Z,53.6
2023-01-02T11:02:28.000Z,53.6
2023-01-02T11:03:38.000Z,53.5
2023-01-02T11:04:48.000Z,53.5
2023-01-02T11:05:58.000Z,53.5
2023-01-02T11:07:08.000Z,53.5
2023-01-02T11:08:18.165Z,53.5
2023-01-02T11:09:28.289Z,53.5
2023-01-02T11:10:38.404Z,53.4
2023-01-02T11:11:48.000Z,53.4
2023-01-02T11:12:58.000Z,53.4
2023-01-02T11:14:08.000Z,53.4
2023-01-02T11:15:18.869Z,53.4
2023-01-02T11:16:28.000Z,53.3
2023-01-02T11:17:39.108Z,53.3
2023-01-02T11:18:49.000Z,53.3
2023-01-02T11:19:59.000Z,53.3
2023-01-02T11:21:09.000Z,53.3
2023-01-02T11:22:18.598Z,53.3
2023-01-02T11:23:28.000Z,53.3
2023-01-02T11:24:38.826Z,53.2
2023-01-02T11:25:48.949Z,53.2
2023-01-02T11:26:59.000Z,53.2
2023-01-02T11:28:09.000Z,53.1
2023-01-02T11:29:19.297Z,53.1
2023-01-02T11:30:29.422Z,53.1
2023-01-02T11:31:39.000Z,53
2023-01-02T11:32:49.000Z,53
2023-01-02T11:35:09.000Z,53
2023-01-02T11:36:20.000Z,52.9
2023-01-02T11:37:29.133Z,52.9
2023-01-02T11:38:39.254Z,52.9
2023-01-02T11:39:49.000Z,52.9
2023-01-02T11:42:09.000Z,52.8
2023-01-02T11:43:19.000Z,52.8
2023-01-02T11:44:29.000Z,52.8
2023-01-02T11:45:39.000Z,52.7
2023-01-02T11:46:50.000Z,52.7
2023-01-02T11:48:00.000Z,52.7
2023-01-02T11:49:10.000Z,52.7
2023-01-02T11:50:20.000Z,52.7
2023-01-02T11:52:40.657Z,52.7
2023-01-02T11:53:49.000Z,52.7
2023-01-02T11:54:58.000Z,52.7
2023-01-02T11:56:09.047Z,52.7
2023-01-02T11:57:19.000Z,52.6
2023-01-02T11:58:29.000Z,52.6
2023-01-02T11:59:39.400Z,52.6
2023-01-02T12:00:49.527Z,52.6
2023-01-02T12:01:59.000Z,52.6
2023-01-02T12:03:09.751Z,52.6
2023-01-02T12:04:19.872Z,52.6
2023-01-02T12:05:29.997Z,52.6
2023-01-02T12:06:39.000Z,52.6
2023-01-02T12:07:48.000Z,52.6
2023-01-02T12:08:58.000Z,52.6
2023-01-02T12:11:18.621Z,52.5
2023-01-02T12:12:28.740Z,52.5
2023-01-02T12:14:48.000Z,52.4
2023-01-02T12:17:09.202Z,52.3
2023-01-02T12:18:19.000Z,52.2
2023-01-02T12:19:29.439Z,52.2
2023-01-02T12:20:39.000Z,52.2
2023-01-02T12:21:49.000Z,52.2
2023-01-02T12:22:58.000Z,52.1
2023-01-02T12:24:07.000Z,52.1
2023-01-02T12:25:18.070Z,52.1
2023-01-02T12:26:28.184Z,52.1
2023-01-02T12:27:38.000Z,52
2023-01-02T12:28:48.000Z,52
2023-01-02T12:29:58.000Z,51.9
2023-01-02T12:31:08.000Z,51.9
2023-01-02T12:32:18.000Z,51.9
2023-01-02T12:33:28.000Z,51.8
2023-01-02T12:34:39.017Z,51.8
2023-01-02T12:35:49.122Z,51.8
2023-01-02T12:36:58.000Z,51.8
2023-01-02T12:38:07.000Z,51.7
2023-01-02T12:39:17.520Z,51.7
2023-01-02T12:40:27.000Z,51.7
2023-01-02T12:41:37.755Z,51.7
2023-01-02T12:42:47.000Z,51.7
2023-01-02T12:43:57.000Z,51.6
2023-01-02T12:45:08.000Z,51.6
2023-01-02T12:46:18.000Z,51.6
2023-01-02T12:47:28.000Z,51.6
2023-01-02T12:48:38.000Z,51.5
2023-01-02T12:49:48.000Z,51.6
2023-01-02T12:50:58.000Z,51.5
2023-01-02T12:52:08.000Z,51.5
2023-01-02T12:53:17.000Z,51.5
2023-01-02T12:54:28.000Z,51.5
2023-01-02T12:55:38.000Z,51.5
2023-01-02T12:56:48.000Z,51.4
2023-01-02T12:57:58.422Z,51.4
2023-01-02T12:59:08.000Z,51.4
2023-01-02T13:00:18.655Z,51.3
2023-01-02T13:01:28.000Z,51.3
2023-01-02T13:02:38.000Z,51.3
2023-01-02T13:03:49.005Z,51.3
2023-01-02T13:04:59.000Z,51.3
2023-01-02T13:06:09.000Z,51.3
2023-01-02T13:07:19.368Z,51.3
2023-01-02T13:08:28.000Z,51.1
2023-01-02T13:09:38.000Z,51.1
2023-01-02T13:10:48.000Z,51.1
2023-01-02T13:11:57.000Z,51
2023-01-02T13:13:07.980Z,51
2023-01-02T13:14:18.000Z,51
2023-01-02T13:15:28.000Z,51
2023-01-02T13:16:37.000Z,51
2023-01-02T13:17:47.476Z,51
2023-01-02T13:18:56.000Z,51
2023-01-02T13:20:05.000Z,51
2023-01-02T13:21:15.875Z,51
2023-01-02T13:22:25.000Z,50.9
2023-01-02T13:23:36.000Z,50.9
2023-01-02T13:24:46.224Z,50.9
2023-01-02T13:25:56.349Z,50.9
2023-01-02T13:27:06.463Z,50.8
2023-01-02T13:28:16.000Z,50.8
2023-01-02T13:29:26.697Z,50.8
2023-01-02T13:30:36.000Z,50.6
2023-01-02T13:31:46.000Z,50.6
2023-01-02T13:32:57.047Z,50.6
2023-01-02T13:34:07.000Z,50.6
2023-01-02T13:35:16.000Z,50.6
2023-01-02T13:36:26.000Z,50.6
2023-01-02T13:37:36.000Z,50.6
2023-01-02T13:38:46.660Z,50.5
2023-01-02T13:39:56.000Z,50.5
2023-01-02T13:41:06.000Z,50.5
2023-01-02T13:42:17.000Z,50.5
2023-01-02T13:43:27.000Z,50.5
2023-01-02T13:44:37.246Z,50.5
2023-01-02T13:45:47.356Z,50.5
2023-01-02T13:46:57.000Z,50.5
2023-01-02T13:48:07.593Z,50.5
2023-01-02T13:49:17.710Z,50.5
2023-01-02T13:50:26.000Z,50.5
2023-01-02T13:51:36.000Z,50.5
2023-01-02T13:52:47.000Z,50.5
2023-01-02T13:53:57.000Z,50.5
2023-01-02T13:56:17.000Z,50.4
2023-01-02T13:57:27.000Z,50.4
2023-01-02T13:58:37.666Z,50.4
2023-01-02T13:59:47.000Z,50.4
2023-01-02T14:00:57.000Z,50.4
2023-01-02T14:02:08.000Z,50.4
2023-01-02T14:03:18.000Z,50.3
2023-01-02T14:04:28.000Z,50.3
2023-01-02T14:05:37.000Z,50.3
2023-01-02T14:06:46.000Z,50.3
2023-01-02T14:07:56.000Z,50.3
2023-01-02T14:09:06.770Z,50.3
2023-01-02T14:11:27.000Z,50.3
2023-01-02T14:13:46.000Z,50.3
2023-01-02T14:14:55.415Z,50.3
2023-01-02T14:16:04.000Z,50.3
2023-01-02T14:17:14.660Z,50.3
2023-01-02T14:18:24.000Z,50.3
2023-01-02T14:19:34.904Z,50.1
2023-01-02T14:20:45.000Z,50.1
2023-01-02T14:21:55.000Z,50.1
2023-01-02T14:23:05.000Z,50.1
2023-01-02T14:24:15.362Z,50.1
2023-01-02T14:25:25.000Z,50.1
2023-01-02T14:26:35.000Z,50.1
2023-01-02T14:27:45.000Z,50.1
2023-01-02T14:28:55.833Z,50.1
2023-01-02T14:30:05.000Z,50.1
2023-01-02T14:31:15.000Z,50
2023-01-02T14:32:25.000Z,50
2023-01-02T14:33:35.000Z,50.1
2023-01-02T14:34:45.444Z,50
2023-01-02T14:35:55.000Z,50
2023-01-02T14:37:05.000Z,50
2023-01-02T14:38:15.000Z,50
2023-01-02T14:39:25.907Z,50
2023-01-02T14:40:36.000Z,50
2023-01-02T14:41:46.000Z,50
2023-01-02T14:42:56.000Z,50
2023-01-02T14:44:06.000Z,50
2023-01-02T14:45:16.000Z,50
2023-01-02T14:46:25.000Z,50
2023-01-02T14:47:35.000Z,50
2023-01-02T14:48:45.000Z,50
2023-01-02T14:49:55.000Z,50
2023-01-02T14:51:06.000Z,50
2023-01-02T14:52:16.230Z,50
2023-01-02T14:53:26.000Z,50
2023-01-02T14:54:36.456Z,50
2023-01-02T14:55:46.000Z,50
2023-01-02T14:56:56.688Z,50
2023-01-02T14:58:06.000Z,50
2023-01-02T14:59:16.000Z,50
2023-01-02T15:00:27.000Z,50
2023-01-02T15:01:36.000Z,50
2023-01-02T15:02:46.000Z,50
2023-01-02T15:03:56.419Z,50
2023-01-02T15:05:06.000Z,50
2023-01-02T15:06:16.000Z,50
2023-01-02T15:07:26.000Z,50
2023-01-02T15:08:36.880Z,50
2023-01-02T15:09:47.000Z,50
2023-01-02T15:10:57.000Z,50
2023-01-02T15:12:07.235Z,50
2023-01-02T15:13:17.348Z,50
2023-01-02T15:14:27.000Z,50
2023-01-02T15:15:37.000Z,50
2023-01-02T15:16:46.000Z,50
2023-01-02T15:17:56.835Z,50
2023-01-02T15:19:06.000Z,50
2023-01-02T15:20:17.000Z,50
2023-01-02T15:21:27.000Z,50
2023-01-02T15:22:37.000Z,50
2023-01-02T15:23:47.000Z,50
2023-01-02T15:24:57.000Z,50
2023-01-02T15:26:07.000Z,50
2023-01-02T15:27:17.000Z,50
2023-01-02T15:28:27.000Z,50
2023-01-02T15:29:38.011Z,50
2023-01-02T15:30:48.136Z,50
2023-01-02T15:31:57.000Z,50
2023-01-02T15:33:07.000Z,50
2023-01-02T15:34:17.515Z,50
2023-01-02T15:35:27.000Z,50
2023-01-02T15:36:37.733Z,50
2023-01-02T15:37:47.000Z,50
2023-01-02T15:38:57.000Z,50
2023-01-02T15:40:08.000Z,50
2023-01-02T15:41:18.000Z,50
2023-01-02T15:42:28.000Z,50
2023-01-02T15:43:38.000Z,50
2023-01-02T15:44:48.000Z,50
2023-01-02T15:45:58.000Z,50
2023-01-02T15:47:07.000Z,50
2023-01-02T15:48:17.933Z,50
2023-01-02T15:49:28.054Z,50
2023-01-02T15:50:38.000Z,50
2023-01-02T15:51:48.000Z,50
2023-01-02T15:52:58.394Z,50
2023-01-02T15:54:08.000Z,50
2023-01-02T15:55:18.000Z,50
2023-01-02T15:56:28.000Z,50
2023-01-02T15:57:38.879Z,50
2023-01-02T15:58:48.000Z,50
2023-01-02T15:59:59.000Z,50
2023-01-02T16:01:09.231Z,50